Terminal Aerodrome Forecast
Issued by NWS Buffalo, NY

Home | Current Version | Previous Version | Text Only | Print | Product List | Glossary On
Versions: 1 2 3 4 5 6 7 8 9 10 11 12 13 14 15 16 17 18 19 20 21 22 23 24 25 26 27
403
FTUS41 KBUF 172035 AAA
TAFROC
TAF AMD
KROC 172035Z 1721/1818 12009KT 2SM -RA OVC012
     FM172300 16007KT 5SM BR VCSH OVC012
     FM180100 17007KT P6SM OVC012
     FM180200 21008KT P6SM OVC012
     FM180300 22009KT P6SM VCSH OVC012
     FM180800 25009KT P6SM OVC012=

USA.gov is the U.S. government's official web portal to all federal, state and local government web resources and services.